SBOSBO ZTH / LGZA
Speedbird OnlineSpeedbird Online ZTH / LGZA

Zakynthos International Airport "Dionysios Solomos"
01:43 18.1°C

Location Zakynthos, Greece
Latitude: 37.7509
Longitude: 20.8843
Local Time 01:43 on 26 May 2024
UTC +3 hours (Europe/Athens)
Currency £1 equals EUR 1.17
METAR LGZA 251920Z 05004KT 9999 SCT025 BKN080 20/18 Q1014
TAF TAF LGZA 252000Z 2521/2606 04008KT 9999 FEW020 BKN070 PROB40 TEMPO 2521/2604 5000 RA FEW018TCU BKN020 BKN070
Weather As Of 26 May 2024 01:43
Description Overcast clouds
Wind 12 km/h from North (18°)
Cloud Cover 92%
Precipitation Rain: none, Snow: none
Sunrise 06:19
Sunset 20:48
Rotations During the last 90 days there were
2 flights from LHR
2 flights to LHR
Web Airport Website | Wikipedia
Codes IATA: ZTH
ICAO: LGZA
Altitude 5 Meter / 15 Feet
Distance 2,231 KM / 1,386 Miles
from London.
Runways
RunwayLength (m)Surface
162228Asphalt
342228Asphalt
Radio
TypeDescriptionFrequency
A/GRDO563.7
TWRTWR125.425
Live ATC



Support Speedbird Online

© 2017-2024 Speedbird Online